Time;durP1;ratioP1;P1;durP2;ratioP2;P2;SDS_P1;SDS_P2;PMS_P1;PMS_P2;Temp;Humidity;BMP_temperature;BMP_pressure;BME280_temperature;BME280_humidity;BME280_pressure;Samples;Min_cycle;Max_cycle;Signal;HPM_P1;HPM_P2
2022/03/08 00:02:23;;;;;;;30.00;14.35;;;;;;;-1.15;79.06;95205.34;5075638;28;20540;-78
2022/03/08 00:04:48;;;;;;;30.70;14.63;;;;;;;-1.14;78.91;95207.00;5089381;28;20028;-78
2022/03/08 00:07:14;;;;;;;29.73;14.73;;;;;;;-1.14;79.23;95204.38;5085721;28;20024;-78
2022/03/08 00:09:40;;;;;;;23.65;13.63;;;;;;;-1.04;78.92;95207.19;5086164;28;20028;-78
2022/03/08 00:12:06;;;;;;;24.05;13.90;;;;;;;-1.20;79.42;95203.97;5088097;28;20035;-78
2022/03/08 00:14:33;;;;;;;24.10;14.20;;;;;;;-1.08;79.34;95200.44;5085617;28;20058;-78
2022/03/08 00:16:58;;;;;;;28.85;12.95;;;;;;;-0.94;78.50;95199.47;5087376;28;20020;-78
2022/03/08 00:19:24;;;;;;;22.75;13.18;;;;;;;-0.83;78.23;95195.19;5086356;28;20054;-78
2022/03/08 00:21:49;;;;;;;27.40;14.63;;;;;;;-0.82;78.15;95197.72;5088915;28;20033;-77
2022/03/08 00:24:16;;;;;;;21.15;12.30;;;;;;;-0.75;77.42;95192.84;5088187;28;20086;-78
2022/03/08 00:26:42;;;;;;;22.98;12.65;;;;;;;-0.80;77.13;95201.09;5086145;28;20391;-78
2022/03/08 00:29:07;;;;;;;26.55;13.77;;;;;;;-0.85;77.03;95202.38;5087205;28;20086;-77
2022/03/08 00:31:32;;;;;;;22.90;13.07;;;;;;;-0.81;77.07;95203.84;5085760;28;20035;-77
2022/03/08 00:33:58;;;;;;;22.38;12.68;;;;;;;-0.82;77.02;95199.53;5087842;28;20067;-78
2022/03/08 00:36:23;;;;;;;23.02;14.23;;;;;;;-0.83;77.02;95200.47;5067128;28;20035;-78
2022/03/08 00:38:49;;;;;;;27.15;14.07;;;;;;;-0.89;77.27;95199.13;5087349;28;20039;-77
2022/03/08 00:41:14;;;;;;;27.35;14.50;;;;;;;-0.84;77.27;95193.53;5088047;28;20047;-78
2022/03/08 00:43:40;;;;;;;24.40;13.93;;;;;;;-0.86;76.80;95188.38;5086365;28;20028;-77
2022/03/08 00:46:05;;;;;;;25.80;14.02;;;;;;;-0.98;77.21;95195.34;5085092;28;20039;-77
2022/03/08 00:48:30;;;;;;;26.85;13.90;;;;;;;-0.96;76.57;95201.38;5086061;28;20042;-77
2022/03/08 00:50:56;;;;;;;28.55;15.68;;;;;;;-0.93;77.00;95192.38;5087922;28;20024;-77
2022/03/08 00:53:21;;;;;;;31.58;14.13;;;;;;;-0.90;77.12;95194.78;5068707;28;20032;-78
2022/03/08 00:55:47;;;;;;;27.58;14.57;;;;;;;-0.93;76.71;95201.13;5088841;28;20016;-77
2022/03/08 00:58:12;;;;;;;31.80;14.00;;;;;;;-0.89;76.48;95194.69;5084979;28;20051;-78
2022/03/08 01:00:38;;;;;;;25.05;14.25;;;;;;;-0.92;76.35;95186.19;5087393;28;20045;-77
2022/03/08 01:03:03;;;;;;;24.83;13.65;;;;;;;-0.82;77.01;95194.25;5088137;28;20470;-77
2022/03/08 01:05:30;;;;;;;26.77;13.20;;;;;;;-0.72;76.49;95192.63;5086809;28;20023;-77
2022/03/08 01:07:56;;;;;;;20.80;12.15;;;;;;;-0.71;76.10;95196.09;5086392;28;20116;-77
2022/03/08 01:10:22;;;;;;;21.58;12.80;;;;;;;-0.67;75.71;95187.84;5085048;28;20106;-77
2022/03/08 01:12:48;;;;;;;20.98;12.35;;;;;;;-0.61;75.38;95189.19;5086622;28;20103;-76
2022/03/08 01:15:13;;;;;;;24.95;11.95;;;;;;;-0.50;75.57;95188.41;5065858;28;20135;-77
2022/03/08 01:17:39;;;;;;;19.90;12.60;;;;;;;-0.37;74.99;95196.19;5084187;28;20034;-78
2022/03/08 01:20:05;;;;;;;26.55;13.65;;;;;;;-0.41;74.39;95187.72;5085654;28;20032;-77
2022/03/08 01:22:31;;;;;;;24.40;13.70;;;;;;;-0.42;74.59;95183.38;5065353;28;20028;-77
2022/03/08 01:24:56;;;;;;;21.88;13.35;;;;;;;-0.51;74.46;95187.56;5071809;28;20444;-78
2022/03/08 01:27:21;;;;;;;24.92;14.00;;;;;;;-0.56;75.05;95186.19;5083288;28;20509;-78
2022/03/08 01:29:47;;;;;;;19.92;12.43;;;;;;;-0.60;74.67;95190.03;5086414;28;20020;-78
2022/03/08 01:32:12;;;;;;;25.20;13.70;;;;;;;-0.72;75.61;95187.34;5085936;28;20027;-78
2022/03/08 01:34:38;;;;;;;22.60;13.25;;;;;;;-0.79;76.21;95186.13;5086530;28;20027;-78
2022/03/08 01:37:04;;;;;;;21.17;12.40;;;;;;;-0.82;76.19;95181.09;5083924;28;20410;-78
2022/03/08 01:39:29;;;;;;;21.05;13.13;;;;;;;-0.71;76.32;95186.38;5082733;28;20482;-76
2022/03/08 01:41:55;;;;;;;20.55;12.48;;;;;;;-0.58;76.22;95182.88;5084922;28;20016;-76
2022/03/08 01:44:20;;;;;;;23.83;13.82;;;;;;;-0.55;75.56;95180.81;5085921;28;20461;-76
2022/03/08 01:46:45;;;;;;;23.27;13.93;;;;;;;-0.52;75.26;95182.41;5083597;28;20035;-76
2022/03/08 01:49:11;;;;;;;25.70;13.85;;;;;;;-0.44;74.52;95177.41;5085417;28;20039;-76
2022/03/08 01:51:37;;;;;;;21.75;13.73;;;;;;;-0.40;74.22;95181.47;5085306;28;20032;-75
2022/03/08 01:54:03;;;;;;;24.05;14.23;;;;;;;-0.42;74.09;95178.09;5066763;28;20028;-76
2022/03/08 01:56:29;;;;;;;26.65;14.55;;;;;;;-0.38;73.78;95169.03;5067615;28;20039;-78
2022/03/08 01:58:56;;;;;;;29.27;15.55;;;;;;;-0.61;74.32;95178.63;5083503;28;20028;-75
2022/03/08 02:01:21;;;;;;;26.08;14.85;;;;;;;-0.82;75.61;95168.75;5084873;28;20028;-76
2022/03/08 02:03:47;;;;;;;24.08;15.50;;;;;;;-0.89;75.84;95165.72;5085066;28;20367;-75
2022/03/08 02:06:12;;;;;;;24.42;13.85;;;;;;;-0.90;76.44;95166.69;5085167;28;20028;-76
2022/03/08 02:08:38;;;;;;;25.45;15.13;;;;;;;-0.96;76.41;95172.41;5085344;28;20016;-76
2022/03/08 02:11:03;;;;;;;26.95;14.68;;;;;;;-1.02;76.95;95170.22;5083552;28;20085;-78
2022/03/08 02:13:29;;;;;;;29.10;15.40;;;;;;;-0.90;76.80;95176.38;5066695;28;20056;-76
2022/03/08 02:15:54;;;;;;;28.60;15.35;;;;;;;-0.94;76.08;95172.28;5066871;28;20109;-76
2022/03/08 02:18:20;;;;;;;27.58;14.68;;;;;;;-0.90;76.12;95161.41;5084798;28;20081;-77
2022/03/08 02:20:45;;;;;;;26.25;15.10;;;;;;;-1.00;76.10;95166.50;5066864;28;20060;-77
2022/03/08 02:23:11;;;;;;;24.05;14.80;;;;;;;-1.00;75.71;95165.69;5084284;28;20028;-78
2022/03/08 02:25:36;;;;;;;28.95;15.02;;;;;;;-1.05;76.10;95170.44;5083524;28;20047;-77
2022/03/08 02:28:02;;;;;;;26.63;15.30;;;;;;;-1.03;76.17;95184.34;5084052;28;20020;-78
2022/03/08 02:30:27;;;;;;;29.85;15.38;;;;;;;-1.09;76.09;95179.50;5067507;28;20035;-76
2022/03/08 02:32:53;;;;;;;25.73;13.93;;;;;;;-0.98;75.41;95170.84;5067728;28;20031;-77
2022/03/08 02:35:29;;;;;;;25.00;14.43;;;;;;;-1.13;76.34;95184.16;5085386;28;20035;-77
2022/03/08 02:38:00;;;;;;;26.65;14.68;;;;;;;-1.06;76.08;95184.53;5084891;28;20064;-78
2022/03/08 02:40:31;;;;;;;29.45;15.63;;;;;;;-1.08;75.76;95186.47;5085454;28;20107;-78
2022/03/08 02:42:56;;;;;;;30.92;15.32;;;;;;;-1.08;75.98;95191.72;5084709;28;20262;-77
2022/03/08 02:45:22;;;;;;;29.52;15.88;;;;;;;-1.09;75.58;95185.63;5085107;28;20536;-77
2022/03/08 02:47:47;;;;;;;33.63;15.50;;;;;;;-1.08;75.54;95189.09;5068085;28;20019;-78
2022/03/08 02:50:13;;;;;;;28.70;15.38;;;;;;;-1.05;74.88;95191.50;5067823;28;20028;-78
2022/03/08 02:52:40;;;;;;;26.35;15.35;;;;;;;-1.09;74.87;95193.50;5068460;28;20063;-78
2022/03/08 02:55:06;;;;;;;28.02;16.02;;;;;;;-1.06;75.08;95195.06;5067802;28;20020;-77
2022/03/08 02:57:31;;;;;;;31.45;16.55;;;;;;;-0.99;74.35;95201.59;5068185;28;20081;-78
2022/03/08 02:59:57;;;;;;;31.17;17.83;;;;;;;-0.89;75.11;95207.03;5084690;28;20036;-78
2022/03/08 03:02:22;;;;;;;27.75;15.63;;;;;;;-0.83;74.47;95195.19;5086638;28;20474;-78
2022/03/08 03:04:48;;;;;;;27.60;15.85;;;;;;;-0.71;74.80;95193.47;5067890;28;20341;-78
2022/03/08 03:07:16;;;;;;;27.38;15.63;;;;;;;-0.64;73.38;95190.25;5084532;28;20032;-78
2022/03/08 03:09:42;;;;;;;30.98;15.55;;;;;;;-0.59;74.08;95200.44;5085161;28;20028;-78
2022/03/08 03:12:08;;;;;;;30.67;16.10;;;;;;;-0.60;73.22;95204.06;5086207;28;20403;-78
2022/03/08 03:14:33;;;;;;;30.90;16.90;;;;;;;-0.66;73.36;95194.78;5088988;28;20634;-78
2022/03/08 03:16:58;;;;;;;31.10;15.18;;;;;;;-0.63;72.68;95205.09;5089998;28;20406;-78
2022/03/08 03:19:24;;;;;;;27.42;15.68;;;;;;;-0.77;72.45;95206.13;5090429;28;20475;-78
2022/03/08 03:21:49;;;;;;;30.58;16.10;;;;;;;-0.88;72.90;95214.81;5089704;28;20068;-77
2022/03/08 03:24:16;;;;;;;29.08;16.27;;;;;;;-0.91;73.11;95215.03;5072052;28;20035;-77
2022/03/08 03:26:42;;;;;;;30.23;16.27;;;;;;;-0.78;73.31;95216.78;5071934;28;20249;-77
2022/03/08 03:29:07;;;;;;;32.33;17.20;;;;;;;-0.68;73.38;95214.31;5071758;28;20024;-77
2022/03/08 03:31:33;;;;;;;33.80;17.58;;;;;;;-0.58;73.05;95217.13;5089886;28;20024;-77
2022/03/08 03:33:58;;;;;;;30.00;16.67;;;;;;;-0.53;72.82;95214.94;5089599;28;20024;-77
2022/03/08 03:36:23;;;;;;;30.30;15.65;;;;;;;-0.46;72.08;95215.34;5089871;28;20062;-77
2022/03/08 03:38:49;;;;;;;29.17;16.48;;;;;;;-0.54;72.15;95214.13;5088248;28;20085;-78
2022/03/08 03:41:14;;;;;;;28.25;15.38;;;;;;;-0.57;72.39;95217.00;5088748;28;20464;-78
2022/03/08 03:43:40;;;;;;;24.40;14.95;;;;;;;-0.65;71.96;95204.41;5089226;28;20498;-77
2022/03/08 03:46:06;;;;;;;30.27;15.95;;;;;;;-0.49;72.00;95213.78;5089801;28;20031;-78
2022/03/08 03:48:32;;;;;;;32.88;16.60;;;;;;;-0.56;71.66;95212.53;5088183;28;20027;-78
2022/03/08 03:50:57;;;;;;;28.50;14.57;;;;;;;-0.59;71.33;95215.41;5088000;28;20028;-78
2022/03/08 03:53:23;;;;;;;27.33;15.57;;;;;;;-0.60;71.83;95214.59;5071559;28;20085;-78
2022/03/08 03:55:48;;;;;;;26.73;15.02;;;;;;;-0.60;72.10;95214.59;5089331;28;20020;-78
2022/03/08 03:58:13;;;;;;;28.55;15.38;;;;;;;-0.60;71.77;95219.84;5088559;28;20028;-77
2022/03/08 04:00:39;;;;;;;26.45;15.65;;;;;;;-0.60;71.68;95219.00;5087549;28;20027;-77
2022/03/08 04:03:04;;;;;;;29.13;15.70;;;;;;;-0.66;72.08;95221.13;5089639;28;20016;-77
2022/03/08 04:05:30;;;;;;;29.75;15.23;;;;;;;-0.71;72.69;95215.34;5088766;28;20020;-78
2022/03/08 04:07:55;;;;;;;24.65;14.60;;;;;;;-0.75;72.86;95211.28;5087881;28;20032;-78
2022/03/08 04:10:20;;;;;;;27.17;15.82;;;;;;;-0.73;72.93;95219.91;5087874;28;20498;-78
2022/03/08 04:12:46;;;;;;;27.42;15.18;;;;;;;-0.74;73.00;95210.31;5087360;28;20024;-78
2022/03/08 04:15:11;;;;;;;28.58;15.00;;;;;;;-0.61;73.00;95217.34;5088113;28;20047;-77
2022/03/08 04:17:37;;;;;;;29.65;15.43;;;;;;;-0.60;72.44;95217.22;5087297;28;20073;-76
2022/03/08 04:20:04;;;;;;;28.77;15.43;;;;;;;-0.61;72.78;95218.16;5088512;28;20032;-76
2022/03/08 04:22:29;;;;;;;28.35;15.85;;;;;;;-0.78;73.47;95216.78;5087389;28;20021;-77
2022/03/08 04:24:54;;;;;;;32.65;16.92;;;;;;;-0.71;73.86;95220.63;5088148;28;20483;-75
2022/03/08 04:27:20;;;;;;;28.80;15.68;;;;;;;-0.60;73.99;95213.75;5088633;28;20526;-76
2022/03/08 04:29:45;;;;;;;28.75;15.68;;;;;;;-0.65;73.71;95207.03;5088679;28;20095;-77
2022/03/08 04:32:11;;;;;;;27.80;16.05;;;;;;;-0.56;73.50;95213.41;5088937;28;20024;-78
2022/03/08 04:34:36;;;;;;;29.40;15.75;;;;;;;-0.57;73.18;95221.41;5088341;28;20024;-76
2022/03/08 04:37:02;;;;;;;31.17;16.58;;;;;;;-0.63;73.69;95223.53;5087745;28;20024;-77
2022/03/08 04:39:27;;;;;;;30.00;15.30;;;;;;;-0.55;73.60;95215.06;5085130;28;20024;-77
2022/03/08 04:41:53;;;;;;;29.83;16.75;;;;;;;-0.42;73.61;95224.72;5069977;28;20035;-76
2022/03/08 04:44:18;;;;;;;28.85;16.00;;;;;;;-0.41;73.21;95218.47;5068053;28;20035;-78
2022/03/08 04:46:44;;;;;;;25.95;15.23;;;;;;;-0.39;73.81;95220.03;5069045;28;20028;-77
2022/03/08 04:49:09;;;;;;;33.15;16.55;;;;;;;-0.45;73.69;95217.88;5088120;28;20016;-77
2022/03/08 04:51:35;;;;;;;32.20;17.85;;;;;;;-0.46;74.05;95218.81;5052061;28;20112;-77
2022/03/08 04:54:00;;;;;;;29.13;15.85;;;;;;;-0.42;73.47;95216.81;5088106;28;20016;-78
2022/03/08 04:56:25;;;;;;;30.27;16.13;;;;;;;-0.35;74.35;95217.16;5085623;28;20451;-77
2022/03/08 04:58:52;;;;;;;30.73;16.33;;;;;;;-0.46;73.61;95218.81;5086961;28;20031;-78
2022/03/08 05:01:18;;;;;;;33.28;17.63;;;;;;;-0.63;74.93;95218.28;5088420;28;20021;-78
2022/03/08 05:03:44;;;;;;;28.63;16.10;;;;;;;-0.60;74.56;95219.00;5088596;28;20077;-77
2022/03/08 05:06:09;;;;;;;32.90;17.35;;;;;;;-0.66;75.41;95220.31;5087780;28;20028;-77
2022/03/08 05:08:35;;;;;;;30.48;16.35;;;;;;;-0.72;75.33;95226.84;5087821;28;20020;-77
2022/03/08 05:11:02;;;;;;;34.20;17.00;;;;;;;-0.81;75.89;95227.53;5088031;28;20024;-77
2022/03/08 05:13:29;;;;;;;30.88;16.70;;;;;;;-0.83;75.91;95227.66;5086836;28;20032;-78
2022/03/08 05:15:54;;;;;;;31.13;17.30;;;;;;;-0.77;76.28;95226.34;5086835;28;20453;-77
2022/03/08 05:18:20;;;;;;;28.45;15.55;;;;;;;-0.66;75.89;95223.78;5087354;28;20505;-77
2022/03/08 05:20:45;;;;;;;28.98;15.25;;;;;;;-0.58;75.61;95227.66;5089033;28;20035;-77
2022/03/08 05:23:11;;;;;;;24.45;13.95;;;;;;;-0.48;74.71;95218.09;5087705;28;20027;-78
2022/03/08 05:25:36;;;;;;;26.80;14.57;;;;;;;-0.53;74.58;95218.44;5088542;28;20039;-78
2022/03/08 05:28:02;;;;;;;30.83;15.30;;;;;;;-0.58;75.47;95217.13;5078711;28;20426;-77
2022/03/08 05:30:27;;;;;;;26.88;14.52;;;;;;;-0.62;75.21;95213.84;5080964;28;20485;-78
2022/03/08 05:32:53;;;;;;;28.30;15.45;;;;;;;-0.69;75.53;95218.72;5082616;28;20020;-78
2022/03/08 05:35:19;;;;;;;28.23;15.18;;;;;;;-0.78;75.88;95224.69;5084034;28;20024;-77
2022/03/08 05:37:44;;;;;;;26.60;14.68;;;;;;;-0.78;76.43;95225.53;5084768;28;20455;-77
2022/03/08 05:40:10;;;;;;;28.45;16.00;;;;;;;-0.76;76.06;95220.16;5068394;28;20066;-80
2022/03/08 05:42:38;;;;;;;28.60;15.70;;;;;;;-0.70;75.85;95217.06;5087634;28;20478;-78
2022/03/08 05:45:05;;;;;;;29.10;15.85;;;;;;;-0.56;75.36;95215.19;5084699;28;20040;-83
2022/03/08 05:47:30;;;;;;;29.95;16.25;;;;;;;-0.58;75.36;95227.66;5064767;28;20472;-78
2022/03/08 05:49:55;;;;;;;30.73;15.57;;;;;;;-0.38;74.77;95220.88;5086833;28;20548;-78
2022/03/08 05:52:21;;;;;;;28.70;14.77;;;;;;;-0.45;75.06;95230.22;5086947;28;20475;-79
2022/03/08 05:54:46;;;;;;;27.55;14.90;;;;;;;-0.32;74.37;95230.16;5085902;28;20039;-78
2022/03/08 05:57:12;;;;;;;26.63;14.50;;;;;;;-0.26;73.91;95232.31;5082340;28;20249;-78
2022/03/08 05:59:37;;;;;;;25.55;13.85;;;;;;;-0.18;74.04;95232.56;5067930;28;20077;-78
2022/03/08 06:02:03;;;;;;;33.35;16.15;;;;;;;-0.10;73.36;95232.00;5085464;28;20081;-78
2022/03/08 06:04:28;;;;;;;21.17;14.27;;;;;;;-0.04;72.51;95228.91;5084969;28;20024;-77
2022/03/08 06:06:54;;;;;;;26.17;14.60;;;;;;;-0.06;72.81;95229.94;5080932;28;20036;-77
2022/03/08 06:09:19;;;;;;;25.23;14.13;;;;;;;-0.04;72.26;95239.44;5081173;28;20033;-78
2022/03/08 06:11:45;;;;;;;30.55;13.90;;;;;;;0.01;72.31;95233.81;5082971;28;20028;-77
2022/03/08 06:14:10;;;;;;;22.38;13.65;;;;;;;0.08;72.55;95232.38;5083184;28;20495;-77
2022/03/08 06:16:36;;;;;;;26.13;14.82;;;;;;;0.09;72.47;95244.63;5079476;28;20036;-78
2022/03/08 06:19:01;;;;;;;23.83;14.13;;;;;;;0.15;71.97;95234.53;5059731;28;20479;-78
2022/03/08 06:21:26;;;;;;;22.35;13.43;;;;;;;0.17;71.84;95236.13;5070136;28;20028;-78
2022/03/08 06:23:52;;;;;;;23.38;13.90;;;;;;;0.13;71.92;95239.94;5086136;28;20406;-78
2022/03/08 06:26:17;;;;;;;21.42;12.75;;;;;;;0.25;71.01;95232.91;5081070;28;20032;-79
2022/03/08 06:28:43;;;;;;;24.42;12.40;;;;;;;0.39;70.16;95237.09;5083542;28;20028;-78
2022/03/08 06:31:09;;;;;;;19.42;12.30;;;;;;;0.34;69.81;95241.88;5085576;28;20031;-77
2022/03/08 06:33:34;;;;;;;19.90;11.82;;;;;;;0.41;70.11;95237.84;5082479;28;20055;-77
2022/03/08 06:36:00;;;;;;;22.83;11.93;;;;;;;0.36;69.71;95239.97;5085202;28;20028;-77
2022/03/08 06:38:25;;;;;;;20.27;12.02;;;;;;;0.50;69.09;95236.25;5081206;28;20499;-77
2022/03/08 06:40:51;;;;;;;20.65;12.32;;;;;;;0.56;69.11;95242.88;5081958;28;20410;-78
2022/03/08 06:43:16;;;;;;;20.75;12.63;;;;;;;0.61;68.93;95249.47;5045165;28;20040;-78
2022/03/08 06:45:42;;;;;;;19.90;11.82;;;;;;;0.65;68.46;95247.44;5085163;28;20032;-77
2022/03/08 06:48:08;;;;;;;20.05;12.02;;;;;;;0.71;68.87;95246.13;5084867;28;20090;-78
2022/03/08 06:50:34;;;;;;;18.75;11.48;;;;;;;0.72;69.16;95247.78;5085116;28;20028;-78
2022/03/08 06:52:59;;;;;;;19.50;11.88;;;;;;;0.61;68.63;95249.47;5081549;28;20038;-77
2022/03/08 06:55:25;;;;;;;18.30;11.18;;;;;;;0.70;68.98;95247.06;5082630;28;20036;-79
2022/03/08 06:57:51;;;;;;;18.30;11.05;;;;;;;0.80;67.66;95249.81;5079239;28;20036;-78
2022/03/08 07:00:16;;;;;;;18.85;10.63;;;;;;;0.69;67.82;95245.41;5085465;28;20468;-78
2022/03/08 07:02:42;;;;;;;18.40;11.40;;;;;;;0.70;68.46;95241.78;5080649;28;20563;-79
2022/03/08 07:05:08;;;;;;;18.95;11.38;;;;;;;0.69;68.13;95240.13;5085118;28;20019;-79
2022/03/08 07:07:34;;;;;;;16.42;10.25;;;;;;;0.63;68.06;95251.16;5081505;28;20067;-79
2022/03/08 07:09:59;;;;;;;20.45;10.75;;;;;;;0.71;68.12;95248.75;5078628;28;20036;-79
2022/03/08 07:12:25;;;;;;;17.35;10.90;;;;;;;0.61;68.00;95249.47;5082081;28;20040;-79
2022/03/08 07:14:50;;;;;;;16.50;9.93;;;;;;;0.67;67.29;95256.06;5079028;28;20519;-79
2022/03/08 07:17:15;;;;;;;19.52;10.88;;;;;;;0.61;67.97;95246.81;5082666;28;20040;-79
2022/03/08 07:19:41;;;;;;;15.95;9.95;;;;;;;0.56;67.82;95256.06;5075653;28;20028;-79
2022/03/08 07:22:06;;;;;;;16.88;10.05;;;;;;;0.44;67.69;95255.22;5079696;28;20352;-78
2022/03/08 07:24:32;;;;;;;18.88;10.63;;;;;;;0.33;67.74;95246.34;5082410;28;20020;-79
2022/03/08 07:26:57;;;;;;;18.15;11.20;;;;;;;0.32;67.75;95257.84;5061643;28;20028;-78
2022/03/08 07:29:23;;;;;;;17.15;11.23;;;;;;;0.29;67.76;95255.44;5081932;28;20031;-79
2022/03/08 07:31:48;;;;;;;19.80;11.50;;;;;;;0.29;68.39;95244.88;5064568;28;20016;-78
2022/03/08 07:34:14;;;;;;;20.63;11.65;;;;;;;0.31;67.87;95248.25;5078683;28;20038;-79
2022/03/08 07:36:39;;;;;;;20.60;11.75;;;;;;;0.28;68.23;95248.50;5080027;28;20077;-79
2022/03/08 07:39:05;;;;;;;18.58;11.02;;;;;;;0.21;68.02;95248.13;5081019;28;20020;-79
2022/03/08 07:41:30;;;;;;;19.92;11.68;;;;;;;0.20;67.87;95245.59;5079371;28;20078;-79
2022/03/08 07:43:56;;;;;;;18.58;11.88;;;;;;;0.09;68.68;95239.34;5066964;28;20128;-80
2022/03/08 07:46:21;;;;;;;20.17;12.32;;;;;;;0.08;68.43;95239.47;5060698;28;20472;-77
2022/03/08 07:48:47;;;;;;;20.70;11.77;;;;;;;0.06;68.76;95246.66;5082544;28;20125;-78
2022/03/08 07:51:12;;;;;;;22.70;12.38;;;;;;;0.09;68.73;95243.78;5063960;28;20051;-80
2022/03/08 07:53:38;;;;;;;22.65;13.07;;;;;;;0.08;68.71;95252.66;5081441;28;20307;-78
2022/03/08 07:56:04;;;;;;;21.88;12.10;;;;;;;0.10;67.89;95241.03;5084215;28;20464;-77
2022/03/08 07:58:30;;;;;;;23.65;13.07;;;;;;;0.13;68.77;95239.13;5078454;28;20036;-77
2022/03/08 08:00:55;;;;;;;20.08;11.40;;;;;;;0.15;68.65;95253.00;5068035;28;20124;-77
2022/03/08 08:03:21;;;;;;;18.42;11.95;;;;;;;0.13;67.60;95239.94;5066695;28;20029;-79
2022/03/08 08:05:47;;;;;;;19.50;12.10;;;;;;;0.11;68.52;95244.50;5085275;28;20032;-78
2022/03/08 08:08:12;;;;;;;21.92;12.98;;;;;;;0.04;68.65;95243.28;5085199;28;20028;-78
2022/03/08 08:10:38;;;;;;;19.77;12.60;;;;;;;0.05;68.49;95242.34;5080826;28;20077;-77
2022/03/08 08:13:03;;;;;;;20.50;11.82;;;;;;;0.00;68.23;95240.06;5086418;28;20024;-78
2022/03/08 08:15:28;;;;;;;23.33;13.10;;;;;;;-0.08;68.83;95245.06;5087020;28;20036;-78
2022/03/08 08:17:54;;;;;;;22.05;12.48;;;;;;;0.02;67.98;95250.50;5087776;28;20399;-78
2022/03/08 08:20:21;;;;;;;22.33;12.57;;;;;;;0.03;67.95;95238.97;5080137;28;20533;-78
2022/03/08 08:22:47;;;;;;;19.77;11.35;;;;;;;-0.02;68.59;95250.69;5087322;28;20036;-78
2022/03/08 08:25:12;;;;;;;22.27;12.40;;;;;;;-0.02;68.10;95236.69;5086470;28;20017;-78
2022/03/08 08:27:37;;;;;;;22.77;12.73;;;;;;;-0.14;68.27;95247.22;5084967;28;20027;-78
2022/03/08 08:30:07;;;;;;;22.63;13.52;;;;;;;-0.09;67.94;95246.00;5085386;28;20020;-80
2022/03/08 08:32:32;;;;;;;19.33;11.63;;;;;;;-0.13;67.95;95238.34;5080870;28;20024;-78
2022/03/08 08:34:58;;;;;;;27.92;14.15;;;;;;;-0.06;67.47;95240.50;5086638;28;20024;-79
2022/03/08 08:37:23;;;;;;;22.40;12.73;;;;;;;-0.13;66.33;95258.59;5065875;28;20028;-78
2022/03/08 08:39:49;;;;;;;26.00;14.43;;;;;;;-0.21;66.58;95245.16;5084474;28;20093;-78
2022/03/08 08:42:14;;;;;;;23.92;13.75;;;;;;;-0.21;67.59;95253.06;5045957;28;20044;-78
2022/03/08 08:44:39;;;;;;;24.88;13.57;;;;;;;-0.21;66.72;95258.34;5080753;28;20028;-78
2022/03/08 08:47:05;;;;;;;25.45;13.98;;;;;;;-0.28;66.64;95257.94;5086078;28;20028;-78
2022/03/08 08:49:30;;;;;;;25.52;13.60;;;;;;;-0.32;66.42;95254.69;5082035;28;20032;-78
2022/03/08 08:51:56;;;;;;;25.75;14.15;;;;;;;-0.38;66.88;95263.06;5083005;28;20023;-77
2022/03/08 08:54:22;;;;;;;24.85;13.82;;;;;;;-0.39;66.40;95267.47;5066411;28;20032;-77
2022/03/08 08:56:47;;;;;;;26.23;14.50;;;;;;;-0.51;66.65;95263.97;5088338;28;20398;-78
2022/03/08 08:59:13;;;;;;;29.17;14.90;;;;;;;-0.53;67.92;95265.00;5088001;28;20024;-78
2022/03/08 09:01:38;;;;;;;28.00;15.98;;;;;;;-0.52;67.90;95256.19;5077239;28;20483;-77
2022/03/08 09:04:04;;;;;;;26.58;14.20;;;;;;;-0.46;67.88;95261.00;5084433;28;20418;-78
2022/03/08 09:06:29;;;;;;;26.20;14.20;;;;;;;-0.42;68.15;95259.78;5081775;28;20040;-77
2022/03/08 09:08:56;;;;;;;27.95;15.77;;;;;;;-0.41;67.08;95264.13;5085817;28;20028;-78
2022/03/08 09:11:22;;;;;;;30.25;15.82;;;;;;;-0.33;66.71;95265.34;5081039;28;20529;-78
2022/03/08 09:13:48;;;;;;;29.65;15.50;;;;;;;-0.37;66.77;95259.44;5081854;28;20085;-78
2022/03/08 09:16:15;;;;;;;28.00;15.07;;;;;;;-0.36;66.29;95260.31;5044500;28;20044;-78
2022/03/08 09:18:41;;;;;;;26.95;14.68;;;;;;;-0.39;66.60;95250.84;5079982;28;20479;-77
2022/03/08 09:21:06;;;;;;;32.70;16.17;;;;;;;-0.45;67.24;95267.09;5076817;28;20024;-78
2022/03/08 09:23:32;;;;;;;29.17;15.88;;;;;;;-0.29;66.71;95261.53;5081752;28;20027;-78
2022/03/08 09:25:57;;;;;;;27.25;15.27;;;;;;;-0.31;66.92;95263.44;5085577;28;20387;-80
2022/03/08 09:28:22;;;;;;;28.27;14.90;;;;;;;-0.32;66.20;95265.22;5084067;28;20035;-78
2022/03/08 09:30:49;;;;;;;29.55;14.98;;;;;;;-0.28;65.72;95273.75;5085650;28;20028;-78
2022/03/08 09:33:14;;;;;;;28.00;14.40;;;;;;;-0.28;64.65;95257.94;5081667;28;20855;-83
2022/03/08 09:35:39;;;;;;;30.95;15.50;;;;;;;-0.33;64.30;95278.53;5081907;28;20028;-78
2022/03/08 09:38:05;;;;;;;26.65;15.10;;;;;;;-0.23;64.20;95262.88;5079944;28;20451;-77
2022/03/08 09:40:30;;;;;;;29.30;14.35;;;;;;;-0.21;63.70;95261.78;5084824;28;20449;-78
2022/03/08 09:42:56;;;;;;;27.58;14.93;;;;;;;-0.19;64.13;95265.16;5078604;28;20410;-79
2022/03/08 09:45:21;;;;;;;31.23;14.95;;;;;;;-0.22;63.87;95262.75;5082102;28;20039;-79
2022/03/08 09:47:47;;;;;;;27.98;15.70;;;;;;;-0.21;64.57;95268.88;5066059;28;20405;-79
2022/03/08 09:50:13;;;;;;;31.38;15.23;;;;;;;-0.23;64.85;95266.34;5083096;28;20027;-78
2022/03/08 09:52:39;;;;;;;27.60;14.95;;;;;;;-0.18;64.50;95271.28;5064356;28;20095;-79
2022/03/08 09:55:04;;;;;;;29.63;15.82;;;;;;;-0.13;64.86;95262.06;5067055;28;20035;-80
2022/03/08 09:57:30;;;;;;;26.17;14.73;;;;;;;-0.11;65.47;95263.75;5083733;28;20474;-78
2022/03/08 09:59:55;;;;;;;30.13;15.32;;;;;;;-0.07;65.43;95259.94;5079450;28;20407;-79
2022/03/08 10:02:23;;;;;;;27.10;15.05;;;;;;;-0.05;65.54;95263.28;5062849;28;20427;-78
2022/03/08 10:05:05;;;;;;;29.50;15.50;;;;;;;-0.06;65.66;95266.88;5067911;28;20474;-78
2022/03/08 10:07:30;;;;;;;28.23;15.50;;;;;;;0.01;66.28;95267.25;5064238;28;20040;-78
2022/03/08 10:09:57;;;;;;;31.23;16.27;;;;;;;0.04;65.79;95267.03;5064820;28;20032;-78
2022/03/08 10:12:22;;;;;;;33.70;17.20;;;;;;;0.04;66.21;95265.22;5061930;28;20017;-78
2022/03/08 10:14:47;;;;;;;29.52;16.13;;;;;;;0.08;65.54;95271.13;5066803;28;20476;-78
2022/03/08 10:17:38;;;;;;;35.03;16.83;;;;;;;0.09;65.71;95267.53;5084604;28;20020;-79
2022/03/08 10:20:05;;;;;;;33.20;16.27;;;;;;;0.17;65.73;95267.78;5083455;28;20104;-78
2022/03/08 10:22:32;;;;;;;29.58;15.60;;;;;;;0.24;65.59;95266.34;5081154;28;20015;-78
2022/03/08 10:25:16;;;;;;;29.92;16.95;;;;;;;0.09;65.58;95270.16;5065279;28;20039;-77
2022/03/08 10:27:57;;;;;;;25.80;15.48;;;;;;;0.30;64.25;95272.97;5074797;28;20039;-78
2022/03/08 10:30:24;;;;;;;27.25;15.43;;;;;;;0.36;64.36;95272.50;5084418;28;20040;-78
2022/03/08 10:32:51;;;;;;;37.17;17.55;;;;;;;0.35;64.69;95276.09;5081879;28;20119;-78
2022/03/08 10:35:24;;;;;;;29.67;16.50;;;;;;;0.47;64.63;95276.09;5077650;28;20032;-80
2022/03/08 10:37:49;;;;;;;28.27;14.70;;;;;;;0.53;63.20;95270.34;5082673;28;20028;-79
2022/03/08 10:40:23;;;;;;;28.50;15.13;;;;;;;0.58;62.85;95267.34;5085601;28;20031;-80
2022/03/08 10:42:57;;;;;;;24.20;14.40;;;;;;;0.63;63.33;95261.72;5058356;28;20544;-82
2022/03/08 10:45:25;;;;;;;26.88;15.55;;;;;;;0.54;64.25;95261.47;5064381;28;20074;-83
2022/03/08 10:47:51;;;;;;;26.50;15.50;;;;;;;0.57;62.76;95263.88;5058515;28;20088;-82
2022/03/08 10:50:18;;;;;;;28.20;16.35;;;;;;;0.66;63.10;95272.03;5084676;28;20036;-79
2022/03/08 10:52:45;;;;;;;27.23;15.52;;;;;;;0.67;62.81;95269.28;5077130;28;20590;-78
2022/03/08 10:55:35;;;;;;;31.00;17.08;;;;;;;0.77;62.42;95264.13;5063592;28;20039;-80
2022/03/08 10:58:04;;;;;;;28.35;15.27;;;;;;;0.92;61.72;95258.59;5073915;28;20487;-78
2022/03/08 11:00:37;;;;;;;28.38;15.57;;;;;;;1.17;60.97;95269.84;5064726;28;20067;-84
2022/03/08 11:03:05;;;;;;;30.92;15.70;;;;;;;1.26;59.79;95258.53;5066534;28;20020;-84
2022/03/08 11:05:33;;;;;;;27.40;15.98;;;;;;;1.32;60.16;95267.78;5083818;28;20028;-80
2022/03/08 11:07:59;;;;;;;25.33;15.10;;;;;;;1.28;59.26;95263.69;5046941;28;20028;-83
2022/03/08 11:10:25;;;;;;;24.52;15.40;;;;;;;1.22;58.46;95257.94;5074396;28;20422;-81
2022/03/08 11:12:52;;;;;;;27.60;15.00;;;;;;;1.27;58.54;95267.28;5082586;28;20379;-81
2022/03/08 11:15:18;;;;;;;27.17;15.20;;;;;;;1.16;58.72;95262.88;5083498;28;20154;-80